createdAt,value
2022-09-17T00:01:22.333Z,49.53
2022-09-17T00:03:52.388Z,49.43
2022-09-17T00:06:21.341Z,49.03
2022-09-17T00:08:49.257Z,49.20
2022-09-17T00:11:20.934Z,49.37
2022-09-17T00:13:51.355Z,49.43
2022-09-17T00:16:25.911Z,49.00
2022-09-17T00:18:54.074Z,49.23
2022-09-17T00:21:22.869Z,49.20
2022-09-17T00:23:54.066Z,49.33
2022-09-17T00:26:22.056Z,49.13
2022-09-17T00:28:53.073Z,49.53
2022-09-17T00:31:21.494Z,49.07
2022-09-17T00:33:49.862Z,49.40
2022-09-17T00:36:18.196Z,49.57
2022-09-17T00:38:48.864Z,49.50
2022-09-17T00:41:16.646Z,49.50
2022-09-17T00:43:46.873Z,49.33
2022-09-17T00:46:30.544Z,49.30
2022-09-17T00:49:00.684Z,49.07
2022-09-17T00:51:35.172Z,49.47
2022-09-17T00:54:05.078Z,49.13
2022-09-17T00:56:35.734Z,49.67
2022-09-17T00:59:04.708Z,49.20
2022-09-17T01:01:34.357Z,49.63
2022-09-17T01:04:05.253Z,49.07
2022-09-17T01:06:38.584Z,48.80
2022-09-17T01:09:29.681Z,48.70
2022-09-17T01:12:26.801Z,49.03
2022-09-17T01:15:09.864Z,49.17
2022-09-17T01:17:53.494Z,49.20
2022-09-17T01:20:54.616Z,48.97
2022-09-17T01:23:47.132Z,48.87
2022-09-17T01:26:32.262Z,49.13
2022-09-17T01:29:08.846Z,49.13
2022-09-17T01:31:44.541Z,49.33
2022-09-17T01:34:21.376Z,48.93
2022-09-17T01:37:04.615Z,48.97
2022-09-17T01:39:39.092Z,49.00
2022-09-17T01:42:15.860Z,49.13
2022-09-17T01:44:50.935Z,49.03
2022-09-17T01:47:23.928Z,49.23
2022-09-17T01:49:56.120Z,49.27
2022-09-17T01:52:26.600Z,48.77
2022-09-17T01:54:59.302Z,48.60
2022-09-17T01:57:32.311Z,49.17
2022-09-17T02:00:03.762Z,48.90
2022-09-17T02:02:45.377Z,49.07
2022-09-17T02:05:19.748Z,49.03
2022-09-17T02:07:53.368Z,48.87
2022-09-17T02:10:24.744Z,48.90
2022-09-17T02:12:57.933Z,48.80
2022-09-17T02:15:30.961Z,48.57
2022-09-17T02:18:04.649Z,48.80
2022-09-17T02:20:40.590Z,48.57
2022-09-17T02:23:15.348Z,48.73
2022-09-17T02:25:49.661Z,49.07
2022-09-17T02:28:25.309Z,49.13
2022-09-17T02:30:53.129Z,48.97
2022-09-17T02:33:23.428Z,48.53
2022-09-17T02:35:51.288Z,48.77
2022-09-17T02:38:25.401Z,48.87
2022-09-17T02:41:04.391Z,48.93
2022-09-17T02:43:39.516Z,48.47
2022-09-17T02:46:22.737Z,48.67
2022-09-17T02:49:23.074Z,48.90
2022-09-17T02:52:01.316Z,48.67
2022-09-17T02:54:35.844Z,48.73
2022-09-17T02:57:14.422Z,48.67
2022-09-17T02:59:51.750Z,48.83
2022-09-17T03:02:24.174Z,48.83
2022-09-17T03:04:55.069Z,48.87
2022-09-17T03:07:24.749Z,48.77
2022-09-17T03:09:52.664Z,48.83
2022-09-17T03:12:20.482Z,48.93
2022-09-17T03:14:48.288Z,48.63
2022-09-17T03:17:16.018Z,48.50
2022-09-17T03:19:44.138Z,48.23
2022-09-17T03:22:12.444Z,48.40
2022-09-17T03:24:41.609Z,48.70
2022-09-17T03:27:09.525Z,48.97
2022-09-17T03:29:37.269Z,48.97
2022-09-17T03:32:05.504Z,48.27
2022-09-17T03:34:33.307Z,48.90
2022-09-17T03:37:01.217Z,48.50
2022-09-17T03:39:29.762Z,48.63
2022-09-17T03:41:58.837Z,49.07
2022-09-17T03:44:26.643Z,48.37
2022-09-17T03:46:54.602Z,48.67
2022-09-17T03:49:23.758Z,48.77
2022-09-17T03:51:51.687Z,48.40
2022-09-17T03:54:19.499Z,48.67
2022-09-17T03:56:47.299Z,48.37
2022-09-17T03:59:16.692Z,48.67
2022-09-17T04:01:44.562Z,48.73
2022-09-17T04:04:12.441Z,48.47
2022-09-17T04:06:40.237Z,49.17
2022-09-17T04:09:08.784Z,48.87
2022-09-17T04:11:36.547Z,48.87
2022-09-17T04:14:04.361Z,48.23
2022-09-17T04:16:33.614Z,48.77
2022-09-17T04:19:01.481Z,48.57
2022-09-17T04:21:29.462Z,48.47
2022-09-17T04:23:57.403Z,48.73
2022-09-17T04:26:25.236Z,48.47
2022-09-17T04:28:53.027Z,48.90
2022-09-17T04:31:22.530Z,48.60
2022-09-17T04:33:51.717Z,48.77
2022-09-17T04:36:19.933Z,48.53
2022-09-17T04:38:49.644Z,48.70
2022-09-17T04:41:17.486Z,48.60
2022-09-17T04:43:45.255Z,48.67
2022-09-17T04:46:14.059Z,48.60
2022-09-17T04:48:41.866Z,48.80
2022-09-17T04:51:11.017Z,48.47
2022-09-17T04:53:39.049Z,49.13
2022-09-17T04:56:07.310Z,49.10
2022-09-17T04:58:35.193Z,48.43
2022-09-17T05:01:02.949Z,48.33
2022-09-17T05:03:31.049Z,48.80
2022-09-17T05:05:58.815Z,48.57
2022-09-17T05:08:27.978Z,49.10
2022-09-17T05:10:56.410Z,48.73
2022-09-17T05:13:24.183Z,48.43
2022-09-17T05:15:52.027Z,48.17
2022-09-17T05:18:19.870Z,48.37
2022-09-17T05:20:47.650Z,48.43
2022-09-17T05:23:15.395Z,48.83
2022-09-17T05:25:44.616Z,48.70
2022-09-17T05:28:12.494Z,49.07
2022-09-17T05:30:40.315Z,48.90
2022-09-17T05:33:09.232Z,48.63
2022-09-17T05:35:37.016Z,48.63
2022-09-17T05:38:07.452Z,48.60
2022-09-17T05:40:35.384Z,48.73
2022-09-17T05:43:06.803Z,48.93
2022-09-17T05:45:35.700Z,48.50
2022-09-17T05:48:04.900Z,49.17
2022-09-17T05:50:33.224Z,48.87
2022-09-17T05:53:06.087Z,48.97
2022-09-17T05:55:35.015Z,48.73
2022-09-17T05:58:10.281Z,48.97
2022-09-17T06:00:38.249Z,48.47
2022-09-17T06:03:06.251Z,48.53
2022-09-17T06:05:34.037Z,48.40
2022-09-17T06:08:01.999Z,48.87
2022-09-17T06:10:29.793Z,48.70
2022-09-17T06:12:57.746Z,49.47
2022-09-17T06:15:28.536Z,49.47
2022-09-17T06:17:56.346Z,49.33
2022-09-17T06:20:24.208Z,48.67
2022-09-17T06:22:57.778Z,49.10
2022-09-17T06:25:27.328Z,49.13
2022-09-17T06:27:55.172Z,48.57
2022-09-17T06:30:22.965Z,49.17
2022-09-17T06:32:52.091Z,49.07
2022-09-17T06:35:20.410Z,48.53
2022-09-17T06:37:48.657Z,49.03
2022-09-17T06:40:16.625Z,49.00
2022-09-17T06:42:44.612Z,48.90
2022-09-17T06:45:16.607Z,49.07
2022-09-17T06:47:44.880Z,49.00
2022-09-17T06:50:14.051Z,49.27
2022-09-17T06:52:49.023Z,49.30
2022-09-17T06:55:17.317Z,48.83
2022-09-17T06:57:45.316Z,49.67
2022-09-17T07:00:14.668Z,49.50
2022-09-17T07:02:42.641Z,49.57
2022-09-17T07:05:10.774Z,49.57
2022-09-17T07:07:40.741Z,49.53
2022-09-17T07:10:09.453Z,49.37
2022-09-17T07:12:42.389Z,49.30
2022-09-17T07:15:15.729Z,49.43
2022-09-17T07:17:44.316Z,49.40
2022-09-17T07:20:13.066Z,49.77
2022-09-17T07:22:42.415Z,49.47
2022-09-17T07:25:10.716Z,49.73
2022-09-17T07:27:38.807Z,49.60
2022-09-17T07:30:07.787Z,50.27
2022-09-17T07:32:35.632Z,50.10
2022-09-17T07:35:03.516Z,49.87
2022-09-17T07:37:31.322Z,50.13
2022-09-17T07:40:00.497Z,50.63
2022-09-17T07:42:28.321Z,50.67
2022-09-17T07:45:01.226Z,50.90
2022-09-17T07:47:29.729Z,51.23
2022-09-17T07:49:57.652Z,51.70
2022-09-17T07:52:25.599Z,52.00
2022-09-17T07:54:53.334Z,51.77
2022-09-17T07:57:22.412Z,52.07
2022-09-17T07:59:50.298Z,52.43
2022-09-17T08:02:23.254Z,52.77
2022-09-17T08:04:51.988Z,53.03
2022-09-17T08:07:19.739Z,52.70
2022-09-17T08:09:47.524Z,52.97
2022-09-17T08:12:15.324Z,53.30
2022-09-17T08:14:44.513Z,52.53
2022-09-17T08:17:12.905Z,52.87
2022-09-17T08:19:40.687Z,53.37
2022-09-17T08:22:08.478Z,54.03
2022-09-17T08:24:36.218Z,53.67
2022-09-17T08:27:04.174Z,53.27
2022-09-17T08:29:35.103Z,53.50
2022-09-17T08:32:04.967Z,53.87
2022-09-17T08:34:32.733Z,53.67
2022-09-17T08:37:00.477Z,54.03
2022-09-17T08:39:29.496Z,53.97
2022-09-17T08:42:08.169Z,54.27
2022-09-17T08:44:42.165Z,54.33
2022-09-17T08:47:18.267Z,54.33
2022-09-17T08:49:51.625Z,53.80
2022-09-17T08:52:58.095Z,54.80
2022-09-17T08:55:34.843Z,54.10
2022-09-17T08:58:20.849Z,54.47
2022-09-17T09:00:55.799Z,54.10
2022-09-17T09:03:37.181Z,54.33
2022-09-17T09:06:10.534Z,54.00
2022-09-17T09:08:43.041Z,54.03
2022-09-17T09:11:16.197Z,53.80
2022-09-17T09:13:47.577Z,53.40
2022-09-17T09:16:18.031Z,53.83
2022-09-17T09:18:51.627Z,53.63
2022-09-17T09:21:27.813Z,53.23
2022-09-17T09:23:58.904Z,53.97
2022-09-17T09:26:40.307Z,53.73
2022-09-17T09:29:20.109Z,53.57
2022-09-17T09:32:16.298Z,53.20
2022-09-17T09:34:48.569Z,52.97
2022-09-17T09:37:22.154Z,51.97
2022-09-17T09:39:53.969Z,51.77
2022-09-17T09:42:30.092Z,53.17
2022-09-17T09:45:05.378Z,52.73
2022-09-17T09:47:50.996Z,52.03
2022-09-17T09:50:54.697Z,52.00
2022-09-17T09:53:29.946Z,51.83
2022-09-17T09:56:13.019Z,51.87
2022-09-17T09:58:42.086Z,51.63
2022-09-17T10:01:14.492Z,51.23
2022-09-17T10:03:45.840Z,50.57
2022-09-17T10:06:15.877Z,50.60
2022-09-17T10:09:01.299Z,50.57
2022-09-17T10:11:33.010Z,50.97
2022-09-17T10:14:16.080Z,51.37
2022-09-17T10:16:43.846Z,50.57
2022-09-17T10:19:15.292Z,50.80
2022-09-17T10:21:44.684Z,50.77
2022-09-17T10:24:24.386Z,51.00
2022-09-17T10:26:52.901Z,50.57
2022-09-17T10:29:21.907Z,51.03
2022-09-17T10:31:51.704Z,50.63
2022-09-17T10:34:24.388Z,50.70
2022-09-17T10:36:55.341Z,51.17
2022-09-17T10:39:34.959Z,51.83
2022-09-17T10:42:04.135Z,52.33
2022-09-17T10:44:33.728Z,51.90
2022-09-17T10:47:07.991Z,52.17
2022-09-17T10:49:42.447Z,52.33
2022-09-17T10:52:19.096Z,52.20
2022-09-17T10:55:26.651Z,52.90
2022-09-17T10:58:12.572Z,52.57
2022-09-17T11:00:53.429Z,52.70
2022-09-17T11:03:43.101Z,52.43
2022-09-17T11:06:32.154Z,53.20
2022-09-17T11:09:08.975Z,52.90
2022-09-17T11:11:49.086Z,53.20
2022-09-17T11:14:31.163Z,52.50
2022-09-17T11:17:07.416Z,52.63
2022-09-17T11:19:46.729Z,52.57
2022-09-17T11:22:24.034Z,52.23
2022-09-17T11:25:09.740Z,52.57
2022-09-17T11:27:53.330Z,52.33
2022-09-17T11:30:23.122Z,52.50
2022-09-17T11:33:29.583Z,53.10
2022-09-17T11:36:00.973Z,52.80
2022-09-17T11:38:39.508Z,52.40
2022-09-17T11:41:13.252Z,52.80
2022-09-17T11:43:45.909Z,52.80
2022-09-17T11:46:19.778Z,52.77
2022-09-17T11:48:51.916Z,52.70
2022-09-17T11:51:31.816Z,53.03
2022-09-17T11:54:07.533Z,52.83
2022-09-17T11:56:42.384Z,52.63
2022-09-17T11:59:19.161Z,52.67
2022-09-17T12:01:51.993Z,52.43
2022-09-17T12:04:39.110Z,52.67
2022-09-17T12:07:16.173Z,51.53
2022-09-17T12:09:49.857Z,52.63
2022-09-17T12:12:47.616Z,52.13
2022-09-17T12:15:21.498Z,50.83
2022-09-17T12:18:14.335Z,52.00
2022-09-17T12:20:47.786Z,51.73
2022-09-17T12:23:23.107Z,52.40
2022-09-17T12:25:59.222Z,52.30
2022-09-17T12:28:36.245Z,51.60
2022-09-17T12:31:11.802Z,52.10
2022-09-17T12:33:47.245Z,52.20
2022-09-17T12:36:31.805Z,51.87
2022-09-17T12:39:26.378Z,52.00
2022-09-17T12:42:02.321Z,51.40
2022-09-17T12:44:48.161Z,51.57
2022-09-17T12:47:55.220Z,51.37
2022-09-17T12:50:35.053Z,50.43
2022-09-17T12:53:16.361Z,51.37
2022-09-17T12:56:03.072Z,50.67
2022-09-17T12:58:44.956Z,51.03
2022-09-17T13:01:20.762Z,51.10
2022-09-17T13:03:53.906Z,50.43
2022-09-17T13:06:57.116Z,51.17
2022-09-17T13:09:48.965Z,51.03
2022-09-17T13:12:31.198Z,51.17
2022-09-17T13:15:24.569Z,51.10
2022-09-17T13:18:13.237Z,51.20
2022-09-17T13:21:01.676Z,50.50
2022-09-17T13:23:37.057Z,51.03
2022-09-17T13:26:08.241Z,51.23
2022-09-17T13:28:46.734Z,50.83
2022-09-17T13:31:21.258Z,51.37
2022-09-17T13:33:55.476Z,50.73
2022-09-17T13:36:43.665Z,50.37
2022-09-17T13:39:32.962Z,50.50
2022-09-17T13:42:08.018Z,51.17
2022-09-17T13:44:37.592Z,50.77
2022-09-17T13:47:22.172Z,51.13
2022-09-17T13:49:56.093Z,50.93
2022-09-17T13:52:40.083Z,50.43
2022-09-17T13:55:08.844Z,50.90
2022-09-17T13:57:49.728Z,50.93
2022-09-17T14:00:53.043Z,50.63
2022-09-17T14:03:57.206Z,50.80
2022-09-17T14:06:54.813Z,50.90
2022-09-17T14:09:39.164Z,51.00
2022-09-17T14:12:41.101Z,51.80
2022-09-17T14:15:34.837Z,51.07
2022-09-17T14:18:04.117Z,51.23
2022-09-17T14:20:35.084Z,51.13
2022-09-17T14:23:05.120Z,51.30
2022-09-17T14:25:41.268Z,51.07
2022-09-17T14:28:16.078Z,51.37
2022-09-17T14:30:44.958Z,51.33
2022-09-17T14:33:18.640Z,51.00
2022-09-17T14:35:47.849Z,51.27
2022-09-17T14:38:21.868Z,51.17
2022-09-17T14:40:59.684Z,51.00
2022-09-17T14:43:39.180Z,51.07
2022-09-17T14:46:10.703Z,50.93
2022-09-17T14:48:38.713Z,50.87
2022-09-17T14:51:23.086Z,51.00
2022-09-17T14:54:11.906Z,51.57
2022-09-17T14:56:51.004Z,50.63
2022-09-17T14:59:24.691Z,50.90
2022-09-17T15:01:52.680Z,51.33
2022-09-17T15:04:24.106Z,50.80
2022-09-17T15:06:51.977Z,51.27
2022-09-17T15:09:24.795Z,50.57
2022-09-17T15:11:55.474Z,51.07
2022-09-17T15:14:27.127Z,50.87
2022-09-17T15:16:57.862Z,50.90
2022-09-17T15:19:31.150Z,51.30
2022-09-17T15:21:59.252Z,51.17
2022-09-17T15:24:41.359Z,50.27
2022-09-17T15:27:14.800Z,50.97
2022-09-17T15:29:45.498Z,50.97
2022-09-17T15:32:14.726Z,50.77
2022-09-17T15:34:42.669Z,50.40
2022-09-17T15:37:20.142Z,50.20
2022-09-17T15:39:55.550Z,50.77
2022-09-17T15:42:26.938Z,50.33
2022-09-17T15:45:07.650Z,50.33
2022-09-17T15:47:37.518Z,50.90
2022-09-17T15:50:13.818Z,50.73
2022-09-17T15:52:41.748Z,51.20
2022-09-17T15:55:30.236Z,50.93
2022-09-17T15:57:59.284Z,50.67
2022-09-17T16:00:27.577Z,51.50
2022-09-17T16:02:56.021Z,51.80
2022-09-17T16:05:55.624Z,52.20
2022-09-17T16:08:25.715Z,52.43
2022-09-17T16:10:54.890Z,53.07
2022-09-17T16:13:27.951Z,53.30
2022-09-17T16:15:56.858Z,53.30
2022-09-17T16:18:24.624Z,53.23
2022-09-17T16:20:52.418Z,53.47
2022-09-17T16:23:20.199Z,53.53
2022-09-17T16:25:48.059Z,52.90
2022-09-17T16:28:20.778Z,54.20
2022-09-17T16:30:50.159Z,53.93
2022-09-17T16:33:19.286Z,53.67
2022-09-17T16:35:47.074Z,54.20
2022-09-17T16:38:15.035Z,54.13
2022-09-17T16:40:43.833Z,54.00
2022-09-17T16:43:12.047Z,53.57
2022-09-17T16:45:41.184Z,53.07
2022-09-17T16:48:09.751Z,53.57
2022-09-17T16:50:41.285Z,53.93
2022-09-17T16:53:09.089Z,54.03
2022-09-17T16:55:37.548Z,52.10
2022-09-17T16:58:05.314Z,51.60
2022-09-17T17:00:33.257Z,50.50
2022-09-17T17:03:02.511Z,50.57
2022-09-17T17:05:31.123Z,49.77
2022-09-17T17:08:02.143Z,49.67
2022-09-17T17:10:32.406Z,49.90
2022-09-17T17:13:02.401Z,49.73
2022-09-17T17:15:30.263Z,49.63
2022-09-17T17:17:58.458Z,48.97
2022-09-17T17:20:27.629Z,49.10
2022-09-17T17:22:56.231Z,49.50
2022-09-17T17:25:24.550Z,49.37
2022-09-17T17:27:52.439Z,49.20
2022-09-17T17:30:20.305Z,48.87
2022-09-17T17:32:51.359Z,48.90
2022-09-17T17:35:19.739Z,48.70
2022-09-17T17:37:48.961Z,48.50
2022-09-17T17:40:16.923Z,48.23
2022-09-17T17:42:47.257Z,48.67
2022-09-17T17:45:15.770Z,48.70
2022-09-17T17:47:43.510Z,48.70
2022-09-17T17:50:11.452Z,48.20
2022-09-17T17:52:47.609Z,48.33
2022-09-17T17:55:21.137Z,48.50
2022-09-17T17:57:48.959Z,48.40
2022-09-17T18:00:25.504Z,48.33
2022-09-17T18:02:53.415Z,48.30
2022-09-17T18:05:21.907Z,47.70
2022-09-17T18:07:50.082Z,47.73
2022-09-17T18:10:19.721Z,47.87
2022-09-17T18:12:51.345Z,48.57
2022-09-17T18:15:21.170Z,48.83
2022-09-17T18:17:50.019Z,49.50
2022-09-17T18:20:18.213Z,49.73
2022-09-17T18:22:46.010Z,49.80
2022-09-17T18:25:13.754Z,50.37
2022-09-17T18:27:42.948Z,50.70
2022-09-17T18:30:14.400Z,50.63
2022-09-17T18:32:42.245Z,50.27
2022-09-17T18:35:11.879Z,50.60
2022-09-17T18:37:39.688Z,50.33
2022-09-17T18:40:08.345Z,50.47
2022-09-17T18:42:36.146Z,50.20
2022-09-17T18:45:06.245Z,50.70
2022-09-17T18:47:34.075Z,51.13
2022-09-17T18:50:01.865Z,50.47
2022-09-17T18:52:29.608Z,50.63
2022-09-17T18:54:57.320Z,50.73
2022-09-17T18:57:25.131Z,50.70
2022-09-17T18:59:52.920Z,50.57
2022-09-17T19:02:22.049Z,50.30
2022-09-17T19:04:49.869Z,50.40
2022-09-17T19:07:17.687Z,50.60
2022-09-17T19:09:45.897Z,50.47
2022-09-17T19:12:13.673Z,50.53
2022-09-17T19:14:41.441Z,50.50
2022-09-17T19:17:09.808Z,50.37
2022-09-17T19:19:38.957Z,50.33
2022-09-17T19:22:08.162Z,50.37
2022-09-17T19:24:36.081Z,50.03
2022-09-17T19:27:04.123Z,50.40
2022-09-17T19:29:32.041Z,50.47
2022-09-17T19:31:59.818Z,50.23
2022-09-17T19:34:27.594Z,50.40
2022-09-17T19:36:56.645Z,50.50
2022-09-17T19:39:24.453Z,50.33
2022-09-17T19:41:52.260Z,50.30
2022-09-17T19:44:20.272Z,50.13
2022-09-17T19:46:49.922Z,50.10
2022-09-17T19:49:17.781Z,50.40
2022-09-17T19:51:45.794Z,50.47
2022-09-17T19:54:15.006Z,50.20
2022-09-17T19:56:42.855Z,50.40
2022-09-17T19:59:10.613Z,50.30
2022-09-17T20:01:38.540Z,50.27
2022-09-17T20:04:06.927Z,50.00
2022-09-17T20:06:35.456Z,50.40
2022-09-17T20:09:03.593Z,50.17
2022-09-17T20:11:32.755Z,49.97
2022-09-17T20:14:03.094Z,50.43
2022-09-17T20:16:31.423Z,50.30
2022-09-17T20:18:59.661Z,50.00
2022-09-17T20:21:29.429Z,50.50
2022-09-17T20:23:58.606Z,50.27
2022-09-17T20:26:27.369Z,50.37
2022-09-17T20:28:56.649Z,50.37
2022-09-17T20:31:26.000Z,50.37
2022-09-17T20:33:55.103Z,50.00
2022-09-17T20:36:24.550Z,50.07
2022-09-17T20:41:42.092Z,50.03
2022-09-17T20:44:11.303Z,50.20
2022-09-17T20:46:39.155Z,50.47
2022-09-17T20:49:07.086Z,50.07
2022-09-17T20:51:35.073Z,50.53
2022-09-17T20:54:03.041Z,50.10
2022-09-17T20:56:33.116Z,50.07
2022-09-17T20:59:08.202Z,50.40
2022-09-17T21:01:38.190Z,50.00
2022-09-17T21:04:07.882Z,50.30
2022-09-17T21:06:40.136Z,50.13
2022-09-17T21:09:10.201Z,50.43
2022-09-17T21:11:38.022Z,50.43
2022-09-17T21:14:06.058Z,50.37
2022-09-17T21:16:34.015Z,50.23
2022-09-17T21:19:05.280Z,50.30
2022-09-17T21:21:34.390Z,50.07
2022-09-17T21:24:02.705Z,50.47
2022-09-17T21:26:31.331Z,50.23
2022-09-17T21:28:59.266Z,49.77
2022-09-17T21:31:32.354Z,50.30
2022-09-17T21:34:04.641Z,50.30
2022-09-17T21:36:34.501Z,50.37
2022-09-17T21:39:04.884Z,50.17
2022-09-17T21:41:33.043Z,50.17
2022-09-17T21:44:01.116Z,50.13
2022-09-17T21:46:30.553Z,50.33
2022-09-17T21:49:01.997Z,50.17
2022-09-17T21:51:33.928Z,50.10
2022-09-17T21:54:03.689Z,50.17
2022-09-17T21:56:32.785Z,50.00
2022-09-17T21:59:02.641Z,49.83
2022-09-17T22:01:32.626Z,50.33
2022-09-17T22:04:01.865Z,50.20
2022-09-17T22:06:32.387Z,50.23
2022-09-17T22:09:03.391Z,50.03
2022-09-17T22:11:33.036Z,50.30
2022-09-17T22:14:04.822Z,50.27
2022-09-17T22:16:35.784Z,50.07
2022-09-17T22:19:04.861Z,50.20
2022-09-17T22:21:36.198Z,50.37
2022-09-17T22:24:05.753Z,50.03
2022-09-17T22:26:36.563Z,50.17
2022-09-17T22:29:06.360Z,50.33
2022-09-17T22:31:34.801Z,50.43
2022-09-17T22:34:02.997Z,50.27
2022-09-17T22:36:31.034Z,50.10
2022-09-17T22:39:00.317Z,50.37
2022-09-17T22:41:29.789Z,49.97
2022-09-17T22:44:00.062Z,49.87
2022-09-17T22:46:29.524Z,50.10
2022-09-17T22:48:57.684Z,49.77
2022-09-17T22:51:26.272Z,50.10
2022-09-17T22:53:54.178Z,49.80
2022-09-17T22:56:24.150Z,50.23
2022-09-17T22:58:52.504Z,50.30
2022-09-17T23:01:23.123Z,49.93
2022-09-17T23:03:53.108Z,50.07
2022-09-17T23:06:22.514Z,49.87
2022-09-17T23:08:50.855Z,49.83
2022-09-17T23:11:20.379Z,49.97
2022-09-17T23:13:49.809Z,50.07
2022-09-17T23:16:18.681Z,49.83
2022-09-17T23:18:47.078Z,50.03
2022-09-17T23:21:16.679Z,49.67
2022-09-17T23:23:46.397Z,49.87
2022-09-17T23:26:16.601Z,50.03
2022-09-17T23:28:44.415Z,49.97
2022-09-17T23:31:15.919Z,49.80
2022-09-17T23:33:44.770Z,50.07
2022-09-17T23:36:14.397Z,49.83
2022-09-17T23:38:43.697Z,49.93
2022-09-17T23:41:13.598Z,49.57
2022-09-17T23:43:41.768Z,49.73
2022-09-17T23:46:09.688Z,49.90
2022-09-17T23:48:39.290Z,49.97
2022-09-17T23:51:07.709Z,49.77
2022-09-17T23:53:36.844Z,49.93
2022-09-17T23:56:05.919Z,50.17
2022-09-17T23:58:34.325Z,49.83
